Altitude, Mississippi
Current Conditions -  °F | °C
As of 10:35 PM on Monday 22 Dec 2014 (Local Time) from KCRX Reporting Station
Haze Haze  
Wind Chill: 57°   Ceiling: 400
Heat Index: 57°   Visibility: 5mi
Dew Point: 55°   Wind: 8mph
Humidity: 94%   Direction: 160°SSE
Pressure: 29.67"   Gusts: NA
Location:  34.6741°N, 88.5234°W
Report Text: KCRX 230435Z AUTO 16007KT 5SM BR OVC004 14/13 A2967 RMK AO2 LTG DSNT SW
Loading
Personal Weather Stations






























Interactive Weather Map New forecast layout! Learn more

10-Day Weather Forecast

Advertisements
Track Severe Weather on mobile